sensor_id;sensor_type;location;lat;lon;timestamp;pressure;altitude;pressure_sealevel;temperature;humidity
16834;BME280;8533;48.426;10.868;2023-04-06T00:01:11;96391.72;;;-0.68;100.00
16834;BME280;8533;48.426;10.868;2023-04-06T00:03:38;96386.75;;;-0.69;100.00
16834;BME280;8533;48.426;10.868;2023-04-06T00:06:06;96383.73;;;-0.73;100.00
16834;BME280;8533;48.426;10.868;2023-04-06T00:08:33;96383.58;;;-0.75;100.00
16834;BME280;8533;48.426;10.868;2023-04-06T00:11:00;96386.15;;;-0.75;100.00
16834;BME280;8533;48.426;10.868;2023-04-06T00:13:28;96381.17;;;-0.77;100.00
16834;BME280;8533;48.426;10.868;2023-04-06T00:15:56;96378.93;;;-0.80;100.00
16834;BME280;8533;48.426;10.868;2023-04-06T00:18:23;96374.95;;;-0.83;100.00
16834;BME280;8533;48.426;10.868;2023-04-06T00:20:51;96376.40;;;-0.84;100.00
16834;BME280;8533;48.426;10.868;2023-04-06T00:23:18;96373.20;;;-0.86;100.00
16834;BME280;8533;48.426;10.868;2023-04-06T00:25:46;96373.23;;;-0.90;100.00
16834;BME280;8533;48.426;10.868;2023-04-06T00:28:13;96367.77;;;-0.91;100.00
16834;BME280;8533;48.426;10.868;2023-04-06T00:30:41;96371.30;;;-0.92;100.00
16834;BME280;8533;48.426;10.868;2023-04-06T00:33:09;96370.98;;;-0.93;100.00
16834;BME280;8533;48.426;10.868;2023-04-06T00:35:36;96374.67;;;-0.96;100.00
16834;BME280;8533;48.426;10.868;2023-04-06T00:38:05;96380.61;;;-0.95;100.00
16834;BME280;8533;48.426;10.868;2023-04-06T00:40:32;96379.01;;;-0.96;100.00
16834;BME280;8533;48.426;10.868;2023-04-06T00:43:01;96372.59;;;-0.96;100.00
16834;BME280;8533;48.426;10.868;2023-04-06T00:45:28;96371.02;;;-0.97;100.00
16834;BME280;8533;48.426;10.868;2023-04-06T00:47:56;96369.89;;;-0.99;100.00
16834;BME280;8533;48.426;10.868;2023-04-06T00:50:23;96365.89;;;-1.01;100.00
16834;BME280;8533;48.426;10.868;2023-04-06T00:52:51;96362.68;;;-1.03;100.00
16834;BME280;8533;48.426;10.868;2023-04-06T00:55:19;96365.12;;;-1.06;100.00
16834;BME280;8533;48.426;10.868;2023-04-06T00:57:46;96360.47;;;-1.06;100.00
16834;BME280;8533;48.426;10.868;2023-04-06T01:00:15;96356.78;;;-1.08;100.00
16834;BME280;8533;48.426;10.868;2023-04-06T01:02:43;96363.52;;;-1.11;100.00
16834;BME280;8533;48.426;10.868;2023-04-06T01:05:11;96365.28;;;-1.11;100.00
16834;BME280;8533;48.426;10.868;2023-04-06T01:07:39;96365.95;;;-1.13;100.00
16834;BME280;8533;48.426;10.868;2023-04-06T01:10:07;96363.06;;;-1.14;100.00
16834;BME280;8533;48.426;10.868;2023-04-06T01:12:34;96362.42;;;-1.17;100.00
16834;BME280;8533;48.426;10.868;2023-04-06T01:15:04;96360.53;;;-1.23;100.00
16834;BME280;8533;48.426;10.868;2023-04-06T01:17:32;96359.56;;;-1.22;100.00
16834;BME280;8533;48.426;10.868;2023-04-06T01:20:00;96358.28;;;-1.26;100.00
16834;BME280;8533;48.426;10.868;2023-04-06T01:22:27;96357.80;;;-1.25;100.00
16834;BME280;8533;48.426;10.868;2023-04-06T01:24:54;96359.89;;;-1.29;100.00
16834;BME280;8533;48.426;10.868;2023-04-06T01:27:22;96352.86;;;-1.31;100.00
16834;BME280;8533;48.426;10.868;2023-04-06T01:29:52;96352.22;;;-1.33;100.00
16834;BME280;8533;48.426;10.868;2023-04-06T01:32:19;96361.20;;;-1.33;100.00
16834;BME280;8533;48.426;10.868;2023-04-06T01:34:47;96351.90;;;-1.34;100.00
16834;BME280;8533;48.426;10.868;2023-04-06T01:37:14;96353.18;;;-1.34;100.00
16834;BME280;8533;48.426;10.868;2023-04-06T01:39:43;96348.21;;;-1.35;100.00
16834;BME280;8533;48.426;10.868;2023-04-06T01:42:10;96345.99;;;-1.38;100.00
16834;BME280;8533;48.426;10.868;2023-04-06T01:44:38;96344.55;;;-1.41;100.00
16834;BME280;8533;48.426;10.868;2023-04-06T01:47:05;96341.19;;;-1.41;100.00
16834;BME280;8533;48.426;10.868;2023-04-06T01:49:33;96342.95;;;-1.42;100.00
16834;BME280;8533;48.426;10.868;2023-04-06T01:52:00;96337.02;;;-1.42;100.00
16834;BME280;8533;48.426;10.868;2023-04-06T01:54:28;96338.78;;;-1.43;100.00
16834;BME280;8533;48.426;10.868;2023-04-06T01:56:55;96331.24;;;-1.44;100.00
16834;BME280;8533;48.426;10.868;2023-04-06T01:59:22;96337.52;;;-1.47;100.00
16834;BME280;8533;48.426;10.868;2023-04-06T02:01:50;96329.51;;;-1.48;100.00
16834;BME280;8533;48.426;10.868;2023-04-06T02:04:18;96331.75;;;-1.53;100.00
16834;BME280;8533;48.426;10.868;2023-04-06T02:06:45;96328.70;;;-1.52;100.00
16834;BME280;8533;48.426;10.868;2023-04-06T02:09:13;96334.02;;;-1.54;100.00
16834;BME280;8533;48.426;10.868;2023-04-06T02:11:41;96330.95;;;-1.54;100.00
16834;BME280;8533;48.426;10.868;2023-04-06T02:14:08;96337.06;;;-1.55;100.00
16834;BME280;8533;48.426;10.868;2023-04-06T02:16:36;96333.22;;;-1.55;100.00
16834;BME280;8533;48.426;10.868;2023-04-06T02:19:03;96334.50;;;-1.55;100.00
16834;BME280;8533;48.426;10.868;2023-04-06T02:21:31;96327.45;;;-1.57;100.00
16834;BME280;8533;48.426;10.868;2023-04-06T02:23:58;96334.66;;;-1.60;100.00
16834;BME280;8533;48.426;10.868;2023-04-06T02:26:25;96331.95;;;-1.63;100.00
16834;BME280;8533;48.426;10.868;2023-04-06T02:28:53;96332.44;;;-1.63;100.00
16834;BME280;8533;48.426;10.868;2023-04-06T02:31:21;96330.84;;;-1.64;100.00
16834;BME280;8533;48.426;10.868;2023-04-06T02:33:48;96335.48;;;-1.64;100.00
16834;BME280;8533;48.426;10.868;2023-04-06T02:36:15;96332.28;;;-1.66;100.00
16834;BME280;8533;48.426;10.868;2023-04-06T02:38:43;96331.79;;;-1.69;100.00
16834;BME280;8533;48.426;10.868;2023-04-06T02:41:10;96331.50;;;-1.70;100.00
16834;BME280;8533;48.426;10.868;2023-04-06T02:43:38;96330.53;;;-1.73;100.00
16834;BME280;8533;48.426;10.868;2023-04-06T02:46:05;96333.09;;;-1.73;100.00
16834;BME280;8533;48.426;10.868;2023-04-06T02:48:33;96322.20;;;-1.75;100.00
16834;BME280;8533;48.426;10.868;2023-04-06T02:51:02;96327.00;;;-1.76;100.00
16834;BME280;8533;48.426;10.868;2023-04-06T02:53:29;96322.22;;;-1.79;100.00
16834;BME280;8533;48.426;10.868;2023-04-06T02:55:57;96328.31;;;-1.80;100.00
16834;BME280;8533;48.426;10.868;2023-04-06T02:58:24;96326.70;;;-1.85;100.00
16834;BME280;8533;48.426;10.868;2023-04-06T03:00:52;96326.41;;;-1.86;100.00
16834;BME280;8533;48.426;10.868;2023-04-06T03:03:19;96317.91;;;-1.87;100.00
16834;BME280;8533;48.426;10.868;2023-04-06T03:05:47;96317.75;;;-1.89;100.00
16834;BME280;8533;48.426;10.868;2023-04-06T03:08:14;96320.79;;;-1.90;100.00
16834;BME280;8533;48.426;10.868;2023-04-06T03:10:42;96320.14;;;-1.92;100.00
16834;BME280;8533;48.426;10.868;2023-04-06T03:13:09;96324.31;;;-1.91;100.00
16834;BME280;8533;48.426;10.868;2023-04-06T03:15:37;96318.86;;;-1.92;100.00
16834;BME280;8533;48.426;10.868;2023-04-06T03:18:04;96316.46;;;-1.94;100.00
16834;BME280;8533;48.426;10.868;2023-04-06T03:20:32;96313.89;;;-1.94;100.00
16834;BME280;8533;48.426;10.868;2023-04-06T03:22:59;96313.28;;;-1.96;100.00
16834;BME280;8533;48.426;10.868;2023-04-06T03:25:27;96316.80;;;-1.97;100.00
16834;BME280;8533;48.426;10.868;2023-04-06T03:27:56;96310.08;;;-1.98;100.00
16834;BME280;8533;48.426;10.868;2023-04-06T03:30:23;96317.12;;;-2.00;100.00
16834;BME280;8533;48.426;10.868;2023-04-06T03:32:52;96316.64;;;-1.99;100.00
16834;BME280;8533;48.426;10.868;2023-04-06T03:35:20;96315.84;;;-2.00;100.00
16834;BME280;8533;48.426;10.868;2023-04-06T03:37:47;96319.20;;;-1.99;100.00
16834;BME280;8533;48.426;10.868;2023-04-06T03:40:15;96323.87;;;-2.03;100.00
16834;BME280;8533;48.426;10.868;2023-04-06T03:42:43;96320.64;;;-2.01;100.00
16834;BME280;8533;48.426;10.868;2023-04-06T03:45:10;96320.80;;;-2.02;100.00
16834;BME280;8533;48.426;10.868;2023-04-06T03:47:39;96319.36;;;-2.01;100.00
16834;BME280;8533;48.426;10.868;2023-04-06T03:50:07;96320.64;;;-2.01;100.00
16834;BME280;8533;48.426;10.868;2023-04-06T03:52:35;96318.74;;;-2.03;100.00
16834;BME280;8533;48.426;10.868;2023-04-06T03:55:02;96319.22;;;-2.03;100.00
16834;BME280;8533;48.426;10.868;2023-04-06T03:57:30;96322.42;;;-2.05;100.00
16834;BME280;8533;48.426;10.868;2023-04-06T03:59:58;96322.09;;;-2.06;100.00
16834;BME280;8533;48.426;10.868;2023-04-06T04:02:26;96328.02;;;-2.06;100.00
16834;BME280;8533;48.426;10.868;2023-04-06T04:04:53;96326.91;;;-2.11;100.00
16834;BME280;8533;48.426;10.868;2023-04-06T04:07:20;96325.45;;;-2.10;100.00
16834;BME280;8533;48.426;10.868;2023-04-06T04:09:48;96328.67;;;-2.12;100.00
16834;BME280;8533;48.426;10.868;2023-04-06T04:12:15;96325.45;;;-2.10;100.00
16834;BME280;8533;48.426;10.868;2023-04-06T04:14:43;96319.70;;;-2.12;100.00
16834;BME280;8533;48.426;10.868;2023-04-06T04:17:10;96333.30;;;-2.15;100.00
16834;BME280;8533;48.426;10.868;2023-04-06T04:19:38;96326.59;;;-2.20;100.00
16834;BME280;8533;48.426;10.868;2023-04-06T04:22:05;96319.39;;;-2.21;100.00
16834;BME280;8533;48.426;10.868;2023-04-06T04:24:33;96323.55;;;-2.20;100.00
16834;BME280;8533;48.426;10.868;2023-04-06T04:27:00;96327.40;;;-2.20;100.00
16834;BME280;8533;48.426;10.868;2023-04-06T04:29:28;96330.09;;;-2.17;100.00
16834;BME280;8533;48.426;10.868;2023-04-06T04:31:55;96327.70;;;-2.15;100.00
16834;BME280;8533;48.426;10.868;2023-04-06T04:34:23;96332.67;;;-2.13;100.00
16834;BME280;8533;48.426;10.868;2023-04-06T04:36:54;96334.76;;;-2.13;100.00
16834;BME280;8533;48.426;10.868;2023-04-06T04:39:21;96329.31;;;-2.14;100.00
16834;BME280;8533;48.426;10.868;2023-04-06T04:41:49;96334.11;;;-2.15;100.00
16834;BME280;8533;48.426;10.868;2023-04-06T04:44:16;96337.30;;;-2.17;100.00
16834;BME280;8533;48.426;10.868;2023-04-06T04:46:44;96337.64;;;-2.20;100.00
16834;BME280;8533;48.426;10.868;2023-04-06T04:49:11;96338.73;;;-2.18;100.00
16834;BME280;8533;48.426;10.868;2023-04-06T04:51:39;96346.12;;;-2.19;100.00
16834;BME280;8533;48.426;10.868;2023-04-06T04:54:06;96346.28;;;-2.21;100.00
16834;BME280;8533;48.426;10.868;2023-04-06T04:56:33;96346.28;;;-2.21;100.00
16834;BME280;8533;48.426;10.868;2023-04-06T04:59:01;96350.93;;;-2.20;100.00
16834;BME280;8533;48.426;10.868;2023-04-06T05:01:28;96348.84;;;-2.21;100.00
16834;BME280;8533;48.426;10.868;2023-04-06T05:03:56;96344.05;;;-2.20;100.00
16834;BME280;8533;48.426;10.868;2023-04-06T05:06:23;96351.07;;;-2.18;100.00
16834;BME280;8533;48.426;10.868;2023-04-06T05:08:51;96352.83;;;-2.18;100.00
16834;BME280;8533;48.426;10.868;2023-04-06T05:11:19;96347.39;;;-2.15;100.00
16834;BME280;8533;48.426;10.868;2023-04-06T05:13:47;96343.72;;;-2.13;100.00
16834;BME280;8533;48.426;10.868;2023-04-06T05:16:14;96341.30;;;-2.10;100.00
16834;BME280;8533;48.426;10.868;2023-04-06T05:18:42;96347.09;;;-2.12;100.00
16834;BME280;8533;48.426;10.868;2023-04-06T05:21:11;96351.87;;;-2.09;100.00
16834;BME280;8533;48.426;10.868;2023-04-06T05:23:39;96351.41;;;-2.05;100.00
16834;BME280;8533;48.426;10.868;2023-04-06T05:26:06;96359.72;;;-1.99;100.00
16834;BME280;8533;48.426;10.868;2023-04-06T05:28:34;96355.38;;;-1.94;100.00
16834;BME280;8533;48.426;10.868;2023-04-06T05:31:02;96362.12;;;-1.89;100.00
16834;BME280;8533;48.426;10.868;2023-04-06T05:33:30;96363.70;;;-1.84;100.00
16834;BME280;8533;48.426;10.868;2023-04-06T05:35:58;96361.28;;;-1.77;100.00
16834;BME280;8533;48.426;10.868;2023-04-06T05:38:27;96366.11;;;-1.70;100.00
16834;BME280;8533;48.426;10.868;2023-04-06T05:40:54;96365.45;;;-1.64;100.00
16834;BME280;8533;48.426;10.868;2023-04-06T05:43:22;96370.88;;;-1.55;100.00
16834;BME280;8533;48.426;10.868;2023-04-06T05:45:49;96378.21;;;-1.44;100.00
16834;BME280;8533;48.426;10.868;2023-04-06T05:48:16;96376.56;;;-1.25;100.00
16834;BME280;8533;48.426;10.868;2023-04-06T05:50:49;96376.83;;;-1.07;100.00
16834;BME280;8533;48.426;10.868;2023-04-06T05:53:19;96372.91;;;-0.91;100.00
16834;BME280;8533;48.426;10.868;2023-04-06T05:55:47;96369.74;;;-0.70;100.00
16834;BME280;8533;48.426;10.868;2023-04-06T05:58:15;96375.58;;;-0.50;100.00
16834;BME280;8533;48.426;10.868;2023-04-06T06:00:43;96368.67;;;-0.26;100.00
16834;BME280;8533;48.426;10.868;2023-04-06T06:03:13;96367.04;;;-0.01;100.00
16834;BME280;8533;48.426;10.868;2023-04-06T06:05:41;96371.24;;;0.15;100.00
16834;BME280;8533;48.426;10.868;2023-04-06T06:08:08;96374.59;;;0.34;99.10
16834;BME280;8533;48.426;10.868;2023-04-06T06:10:38;96372.80;;;0.54;96.89
16834;BME280;8533;48.426;10.868;2023-04-06T06:13:06;96373.52;;;0.77;94.96
16834;BME280;8533;48.426;10.868;2023-04-06T06:15:34;96377.34;;;1.06;93.16
16834;BME280;8533;48.426;10.868;2023-04-06T06:18:02;96376.48;;;1.25;91.52
16834;BME280;8533;48.426;10.868;2023-04-06T06:20:29;96374.88;;;1.49;89.33
16834;BME280;8533;48.426;10.868;2023-04-06T06:22:57;96372.95;;;1.94;88.57
16834;BME280;8533;48.426;10.868;2023-04-06T06:25:24;96370.29;;;2.19;85.47
16834;BME280;8533;48.426;10.868;2023-04-06T06:27:53;96371.26;;;2.46;85.99
16834;BME280;8533;48.426;10.868;2023-04-06T06:30:20;96374.78;;;2.66;83.01
16834;BME280;8533;48.426;10.868;2023-04-06T06:32:48;96378.84;;;2.99;81.79
16834;BME280;8533;48.426;10.868;2023-04-06T06:35:16;96370.44;;;3.08;80.78
16834;BME280;8533;48.426;10.868;2023-04-06T06:37:43;96375.02;;;3.12;79.14
16834;BME280;8533;48.426;10.868;2023-04-06T06:40:11;96373.49;;;3.55;77.54
16834;BME280;8533;48.426;10.868;2023-04-06T06:42:39;96376.10;;;3.68;74.48
16834;BME280;8533;48.426;10.868;2023-04-06T06:45:07;96377.62;;;3.73;76.18
16834;BME280;8533;48.426;10.868;2023-04-06T06:47:35;96373.94;;;3.78;73.04
16834;BME280;8533;48.426;10.868;2023-04-06T06:50:03;96370.48;;;4.14;72.40
16834;BME280;8533;48.426;10.868;2023-04-06T06:52:31;96368.09;;;4.39;70.01
16834;BME280;8533;48.426;10.868;2023-04-06T06:54:58;96365.97;;;4.72;68.11
16834;BME280;8533;48.426;10.868;2023-04-06T06:57:27;96378.65;;;5.06;66.47
16834;BME280;8533;48.426;10.868;2023-04-06T06:59:54;96373.37;;;5.10;65.50
16834;BME280;8533;48.426;10.868;2023-04-06T07:02:22;96369.64;;;5.60;64.92
16834;BME280;8533;48.426;10.868;2023-04-06T07:04:49;96372.47;;;5.58;63.33
16834;BME280;8533;48.426;10.868;2023-04-06T07:07:17;96371.23;;;5.67;64.73
16834;BME280;8533;48.426;10.868;2023-04-06T07:09:45;96373.67;;;5.94;61.47
16834;BME280;8533;48.426;10.868;2023-04-06T07:12:12;96370.05;;;6.26;61.04
16834;BME280;8533;48.426;10.868;2023-04-06T07:14:40;96373.06;;;6.39;59.92
16834;BME280;8533;48.426;10.868;2023-04-06T07:17:07;96370.82;;;6.42;58.48
16834;BME280;8533;48.426;10.868;2023-04-06T07:19:36;96375.92;;;6.31;59.05
16834;BME280;8533;48.426;10.868;2023-04-06T07:22:04;96371.62;;;6.43;58.21
16834;BME280;8533;48.426;10.868;2023-04-06T07:24:32;96377.70;;;6.80;57.65
16834;BME280;8533;48.426;10.868;2023-04-06T07:26:59;96376.27;;;7.30;56.58
16834;BME280;8533;48.426;10.868;2023-04-06T07:29:30;96382.91;;;7.16;55.30
16834;BME280;8533;48.426;10.868;2023-04-06T07:31:57;96378.11;;;7.50;55.05
16834;BME280;8533;48.426;10.868;2023-04-06T07:34:25;96377.18;;;7.83;53.97
16834;BME280;8533;48.426;10.868;2023-04-06T07:36:53;96376.31;;;7.80;53.29
16834;BME280;8533;48.426;10.868;2023-04-06T07:39:20;96376.22;;;7.87;52.70
16834;BME280;8533;48.426;10.868;2023-04-06T07:41:48;96374.94;;;8.08;51.96
16834;BME280;8533;48.426;10.868;2023-04-06T07:44:16;96375.02;;;8.22;51.30
16834;BME280;8533;48.426;10.868;2023-04-06T07:46:43;96377.02;;;8.50;50.95
16834;BME280;8533;48.426;10.868;2023-04-06T07:49:11;96375.11;;;9.17;49.99
16834;BME280;8533;48.426;10.868;2023-04-06T07:51:39;96374.05;;;9.16;49.21
16834;BME280;8533;48.426;10.868;2023-04-06T07:54:07;96373.23;;;8.90;49.89
16834;BME280;8533;48.426;10.868;2023-04-06T07:56:34;96366.97;;;9.40;48.21
16834;BME280;8533;48.426;10.868;2023-04-06T07:59:02;96374.57;;;9.04;48.56
16834;BME280;8533;48.426;10.868;2023-04-06T08:01:30;96363.14;;;9.59;47.02
16834;BME280;8533;48.426;10.868;2023-04-06T08:03:58;96363.26;;;10.09;46.20
16834;BME280;8533;48.426;10.868;2023-04-06T08:06:27;96361.78;;;10.63;44.50
16834;BME280;8533;48.426;10.868;2023-04-06T08:08:55;96361.38;;;10.36;43.99
16834;BME280;8533;48.426;10.868;2023-04-06T08:11:23;96362.20;;;10.91;43.84
16834;BME280;8533;48.426;10.868;2023-04-06T08:13:50;96354.08;;;11.77;42.68
16834;BME280;8533;48.426;10.868;2023-04-06T08:16:19;96360.45;;;11.62;41.57
16834;BME280;8533;48.426;10.868;2023-04-06T08:18:46;96361.36;;;11.27;42.37
16834;BME280;8533;48.426;10.868;2023-04-06T08:21:14;96360.98;;;12.13;40.77
16834;BME280;8533;48.426;10.868;2023-04-06T08:23:41;96357.60;;;12.49;39.34
16834;BME280;8533;48.426;10.868;2023-04-06T08:26:10;96356.75;;;12.76;38.68
16834;BME280;8533;48.426;10.868;2023-04-06T08:28:37;96356.85;;;13.41;37.63
16834;BME280;8533;48.426;10.868;2023-04-06T08:31:06;96353.34;;;14.05;37.13
16834;BME280;8533;48.426;10.868;2023-04-06T08:33:34;96349.31;;;13.64;36.50
16834;BME280;8533;48.426;10.868;2023-04-06T08:36:15;96352.05;;;14.38;35.90
16834;BME280;8533;48.426;10.868;2023-04-06T08:38:38;96354.42;;;14.17;35.78
16834;BME280;8533;48.426;10.868;2023-04-06T08:41:10;96362.32;;;14.32;35.87
16834;BME280;8533;48.426;10.868;2023-04-06T08:43:49;96357.04;;;14.14;35.40
16834;BME280;8533;48.426;10.868;2023-04-06T08:46:17;96359.42;;;14.76;33.27
16834;BME280;8533;48.426;10.868;2023-04-06T08:48:45;96350.72;;;14.99;32.67
16834;BME280;8533;48.426;10.868;2023-04-06T08:51:16;96363.70;;;15.62;31.23
16834;BME280;8533;48.426;10.868;2023-04-06T08:53:44;96351.53;;;14.79;32.98
16834;BME280;8533;48.426;10.868;2023-04-06T08:56:12;96352.88;;;14.56;32.29
16834;BME280;8533;48.426;10.868;2023-04-06T08:58:41;96351.27;;;14.80;32.56
16834;BME280;8533;48.426;10.868;2023-04-06T09:01:11;96344.46;;;14.49;31.93
16834;BME280;8533;48.426;10.868;2023-04-06T09:03:40;96349.83;;;15.31;32.04
16834;BME280;8533;48.426;10.868;2023-04-06T09:06:09;96353.06;;;15.03;32.47
16834;BME280;8533;48.426;10.868;2023-04-06T09:08:40;96350.16;;;15.02;31.80
16834;BME280;8533;48.426;10.868;2023-04-06T09:11:08;96350.22;;;14.33;32.15
16834;BME280;8533;48.426;10.868;2023-04-06T09:13:47;96344.30;;;15.30;32.17
16834;BME280;8533;48.426;10.868;2023-04-06T09:16:15;96351.30;;;15.60;30.89
16834;BME280;8533;48.426;10.868;2023-04-06T09:18:42;96344.88;;;15.12;30.92
16834;BME280;8533;48.426;10.868;2023-04-06T09:21:10;96355.56;;;15.46;30.27
16834;BME280;8533;48.426;10.868;2023-04-06T09:23:39;96349.77;;;15.41;29.70
16834;BME280;8533;48.426;10.868;2023-04-06T09:26:14;96347.05;;;15.72;30.17
16834;BME280;8533;48.426;10.868;2023-04-06T09:28:45;96353.11;;;15.72;30.47
16834;BME280;8533;48.426;10.868;2023-04-06T09:31:14;96347.58;;;15.69;30.66
16834;BME280;8533;48.426;10.868;2023-04-06T09:33:44;96347.88;;;15.62;30.24
16834;BME280;8533;48.426;10.868;2023-04-06T09:36:13;96338.92;;;14.45;32.32
16834;BME280;8533;48.426;10.868;2023-04-06T09:38:57;96341.81;;;12.79;34.71
16834;BME280;8533;48.426;10.868;2023-04-06T09:41:34;96341.77;;;13.98;33.51
16834;BME280;8533;48.426;10.868;2023-04-06T09:44:06;96336.91;;;15.32;31.90
16834;BME280;8533;48.426;10.868;2023-04-06T09:46:34;96335.94;;;15.03;31.16
16834;BME280;8533;48.426;10.868;2023-04-06T09:49:05;96332.63;;;15.41;30.55
16834;BME280;8533;48.426;10.868;2023-04-06T09:51:38;96332.58;;;14.08;31.77
16834;BME280;8533;48.426;10.868;2023-04-06T09:54:07;96330.79;;;12.82;36.89
16834;BME280;8533;48.426;10.868;2023-04-06T09:56:39;96328.20;;;11.37;37.43
16834;BME280;8533;48.426;10.868;2023-04-06T09:59:14;96328.16;;;11.78;35.98
16834;BME280;8533;48.426;10.868;2023-04-06T10:01:37;96319.09;;;13.67;34.27
16834;BME280;8533;48.426;10.868;2023-04-06T10:06:57;96319.42;;;14.29;33.25
16834;BME280;8533;48.426;10.868;2023-04-06T10:09:28;96320.66;;;15.05;32.26
16834;BME280;8533;48.426;10.868;2023-04-06T10:11:58;96312.19;;;15.77;30.05
16834;BME280;8533;48.426;10.868;2023-04-06T10:14:26;96308.54;;;16.44;29.04
16834;BME280;8533;48.426;10.868;2023-04-06T10:16:54;96312.72;;;15.77;30.45
16834;BME280;8533;48.426;10.868;2023-04-06T10:19:24;96302.75;;;17.21;27.81
16834;BME280;8533;48.426;10.868;2023-04-06T10:21:55;96307.95;;;16.18;30.66
16834;BME280;8533;48.426;10.868;2023-04-06T10:24:24;96303.00;;;16.74;29.09
16834;BME280;8533;48.426;10.868;2023-04-06T10:27:04;96300.81;;;16.21;28.98
16834;BME280;8533;48.426;10.868;2023-04-06T10:29:27;96304.97;;;14.26;31.39
16834;BME280;8533;48.426;10.868;2023-04-06T10:31:55;96297.77;;;14.98;31.19
16834;BME280;8533;48.426;10.868;2023-04-06T10:34:22;96294.28;;;16.13;29.64
16834;BME280;8533;48.426;10.868;2023-04-06T10:36:49;96299.41;;;15.97;29.83
16834;BME280;8533;48.426;10.868;2023-04-06T10:39:23;96295.88;;;16.09;29.36
16834;BME280;8533;48.426;10.868;2023-04-06T10:41:47;96296.31;;;17.05;27.99
16834;BME280;8533;48.426;10.868;2023-04-06T10:44:20;96291.38;;;16.44;29.28
16834;BME280;8533;48.426;10.868;2023-04-06T10:46:56;96286.44;;;17.13;28.12
16834;BME280;8533;48.426;10.868;2023-04-06T10:49:25;96288.58;;;16.88;28.75
16834;BME280;8533;48.426;10.868;2023-04-06T10:51:54;96284.38;;;16.58;28.90
16834;BME280;8533;48.426;10.868;2023-04-06T10:54:25;96279.67;;;17.69;27.17
16834;BME280;8533;48.426;10.868;2023-04-06T10:56:54;96281.42;;;16.33;31.09
16834;BME280;8533;48.426;10.868;2023-04-06T10:59:23;96288.03;;;13.44;35.73
16834;BME280;8533;48.426;10.868;2023-04-06T11:01:51;96286.49;;;15.46;31.63
16834;BME280;8533;48.426;10.868;2023-04-06T11:04:20;96282.19;;;16.70;29.23
16834;BME280;8533;48.426;10.868;2023-04-06T11:06:50;96274.77;;;17.78;28.10
16834;BME280;8533;48.426;10.868;2023-04-06T11:09:28;96277.56;;;17.47;28.36
16834;BME280;8533;48.426;10.868;2023-04-06T11:11:58;96281.53;;;15.37;30.76
16834;BME280;8533;48.426;10.868;2023-04-06T11:14:27;96282.53;;;12.90;36.25
16834;BME280;8533;48.426;10.868;2023-04-06T11:16:54;96282.88;;;13.04;34.41
16834;BME280;8533;48.426;10.868;2023-04-06T11:19:22;96271.36;;;15.13;32.00
16834;BME280;8533;48.426;10.868;2023-04-06T11:21:49;96267.34;;;14.48;33.63
16834;BME280;8533;48.426;10.868;2023-04-06T11:24:24;96262.85;;;14.59;33.02
16834;BME280;8533;48.426;10.868;2023-04-06T11:26:55;96264.54;;;15.07;31.40
16834;BME280;8533;48.426;10.868;2023-04-06T11:29:30;96261.03;;;14.27;32.73
16834;BME280;8533;48.426;10.868;2023-04-06T11:32:03;96264.02;;;15.61;29.97
16834;BME280;8533;48.426;10.868;2023-04-06T11:34:37;96255.77;;;16.07;29.04
16834;BME280;8533;48.426;10.868;2023-04-06T11:37:10;96258.69;;;16.06;30.87
16834;BME280;8533;48.426;10.868;2023-04-06T11:39:50;96263.67;;;14.42;32.39
16834;BME280;8533;48.426;10.868;2023-04-06T11:42:21;96258.09;;;12.85;33.08
16834;BME280;8533;48.426;10.868;2023-04-06T11:44:51;96258.83;;;13.32;33.42
16834;BME280;8533;48.426;10.868;2023-04-06T11:47:19;96261.52;;;13.70;33.95
16834;BME280;8533;48.426;10.868;2023-04-06T11:49:48;96254.98;;;14.19;32.25
16834;BME280;8533;48.426;10.868;2023-04-06T11:52:18;96257.25;;;14.83;31.74
16834;BME280;8533;48.426;10.868;2023-04-06T11:54:47;96249.67;;;14.51;32.77
16834;BME280;8533;48.426;10.868;2023-04-06T11:57:17;96249.69;;;13.65;32.79
16834;BME280;8533;48.426;10.868;2023-04-06T11:59:45;96250.41;;;13.30;32.17
16834;BME280;8533;48.426;10.868;2023-04-06T12:02:12;96242.78;;;13.21;34.61
16834;BME280;8533;48.426;10.868;2023-04-06T12:04:40;96240.52;;;13.86;32.44
16834;BME280;8533;48.426;10.868;2023-04-06T12:07:07;96242.57;;;14.55;31.64
16834;BME280;8533;48.426;10.868;2023-04-06T12:09:35;96236.31;;;13.92;31.70
16834;BME280;8533;48.426;10.868;2023-04-06T12:12:04;96232.09;;;13.68;32.67
16834;BME280;8533;48.426;10.868;2023-04-06T12:14:31;96239.22;;;15.11;31.66
16834;BME280;8533;48.426;10.868;2023-04-06T12:16:59;96231.38;;;14.98;31.71
16834;BME280;8533;48.426;10.868;2023-04-06T12:19:26;96230.81;;;16.26;31.07
16834;BME280;8533;48.426;10.868;2023-04-06T12:21:54;96232.56;;;16.88;28.08
16834;BME280;8533;48.426;10.868;2023-04-06T12:24:24;96228.24;;;16.95;28.58
16834;BME280;8533;48.426;10.868;2023-04-06T12:26:51;96224.78;;;17.58;27.40
16834;BME280;8533;48.426;10.868;2023-04-06T12:29:18;96212.22;;;17.85;26.88
16834;BME280;8533;48.426;10.868;2023-04-06T12:31:46;96224.20;;;15.60;30.48
16834;BME280;8533;48.426;10.868;2023-04-06T12:34:13;96220.38;;;16.68;29.30
16834;BME280;8533;48.426;10.868;2023-04-06T12:36:41;96221.78;;;17.67;27.56
16834;BME280;8533;48.426;10.868;2023-04-06T12:39:08;96213.30;;;17.46;28.42
16834;BME280;8533;48.426;10.868;2023-04-06T12:41:37;96218.93;;;17.96;27.75
16834;BME280;8533;48.426;10.868;2023-04-06T12:44:07;96209.52;;;18.36;26.92
16834;BME280;8533;48.426;10.868;2023-04-06T12:46:35;96214.31;;;18.91;25.96
16834;BME280;8533;48.426;10.868;2023-04-06T12:49:02;96214.64;;;16.59;27.86
16834;BME280;8533;48.426;10.868;2023-04-06T12:51:30;96219.75;;;15.92;29.25
16834;BME280;8533;48.426;10.868;2023-04-06T12:54:00;96219.76;;;15.02;30.09
16834;BME280;8533;48.426;10.868;2023-04-06T12:56:28;96214.48;;;12.27;34.31
16834;BME280;8533;48.426;10.868;2023-04-06T12:58:56;96223.81;;;12.10;35.68
16834;BME280;8533;48.426;10.868;2023-04-06T13:01:23;96216.48;;;12.07;33.87
16834;BME280;8533;48.426;10.868;2023-04-06T13:03:52;96213.61;;;11.76;35.49
16834;BME280;8533;48.426;10.868;2023-04-06T13:06:21;96217.31;;;12.15;33.84